Time;durP1;ratioP1;P1;durP2;ratioP2;P2;SDS_P1;SDS_P2;PMS_P1;PMS_P2;Temp;Humidity;BMP_temperature;BMP_pressure;BME280_temperature;BME280_humidity;BME280_pressure;Samples;Min_cycle;Max_cycle;Signal;HPM_P1;HPM_P2
2023/12/05 00:00:26;;;;;;;33.22;18.35;;;0.10;99.90;;;;;;5034149;28;20014;-91
2023/12/05 00:02:51;;;;;;;29.88;19.92;;;0.10;99.90;;;;;;5023777;28;20033;-92
2023/12/05 00:05:17;;;;;;;33.88;21.60;;;0.10;99.90;;;;;;5023604;28;20054;-92
2023/12/05 00:07:43;;;;;;;30.48;17.98;;;0.10;99.90;;;;;;5039230;28;20021;-92
2023/12/05 00:10:09;;;;;;;32.88;21.30;;;0.10;99.90;;;;;;5042167;28;20032;-90
2023/12/05 00:12:35;;;;;;;33.65;21.70;;;0.10;99.90;;;;;;5052624;28;20113;-91
2023/12/05 00:15:01;;;;;;;32.92;21.52;;;0.20;99.90;;;;;;5038183;28;20032;-88
2023/12/05 00:17:27;;;;;;;32.00;20.63;;;0.10;99.90;;;;;;5041881;28;20022;-92
2023/12/05 00:19:55;;;;;;;35.28;21.98;;;0.20;99.90;;;;;;5040730;28;20025;-91
2023/12/05 00:22:21;;;;;;;36.15;22.08;;;0.10;99.90;;;;;;5040480;28;20018;-91
2023/12/05 00:24:47;;;;;;;35.63;21.85;;;0.10;99.90;;;;;;5040784;28;20340;-91
2023/12/05 00:27:12;;;;;;;36.72;23.17;;;0.10;99.90;;;;;;5039228;28;20037;-91
2023/12/05 00:29:38;;;;;;;35.60;21.70;;;0.10;99.90;;;;;;5037165;28;20036;-92
2023/12/05 00:32:04;;;;;;;32.33;20.38;;;0.20;99.90;;;;;;5042783;28;20029;-92
2023/12/05 00:34:30;;;;;;;34.03;21.10;;;0.10;99.90;;;;;;5041286;28;20051;-91
2023/12/05 00:36:55;;;;;;;30.88;20.27;;;0.10;99.90;;;;;;5043084;28;20029;-92
2023/12/05 00:39:21;;;;;;;36.45;22.13;;;0.10;99.90;;;;;;5034244;28;20072;-91
2023/12/05 00:41:47;;;;;;;34.17;21.55;;;0.10;99.90;;;;;;5044964;28;20022;-92
2023/12/05 00:44:13;;;;;;;32.85;22.33;;;0.10;99.90;;;;;;5038684;28;20093;-91
2023/12/05 00:46:39;;;;;;;32.15;21.35;;;0.10;99.90;;;;;;5036833;28;20097;-91
2023/12/05 00:49:10;;;;;;;31.20;20.45;;;0.20;99.90;;;;;;5042193;28;20056;-91
2023/12/05 00:51:38;;;;;;;36.67;21.80;;;0.10;99.90;;;;;;5042265;28;20033;-92
2023/12/05 00:54:04;;;;;;;36.85;22.23;;;0.10;99.90;;;;;;5044869;28;20136;-92
2023/12/05 00:56:30;;;;;;;40.03;24.08;;;0.20;99.90;;;;;;5038813;28;20025;-91
2023/12/05 00:58:55;;;;;;;35.55;22.17;;;0.20;99.90;;;;;;5030986;28;20105;-91
2023/12/05 01:01:21;;;;;;;36.28;23.60;;;0.20;99.90;;;;;;5042177;28;20475;-92
2023/12/05 01:03:47;;;;;;;34.42;21.65;;;0.20;99.90;;;;;;5036631;28;20050;-92
2023/12/05 01:06:13;;;;;;;35.88;20.67;;;0.20;99.90;;;;;;5039002;28;20025;-92
2023/12/05 01:08:39;;;;;;;32.55;20.60;;;0.20;99.90;;;;;;5045410;28;20060;-92
2023/12/05 01:11:05;;;;;;;34.97;20.75;;;0.20;99.90;;;;;;5035571;28;20062;-92
2023/12/05 01:13:33;;;;;;;40.15;24.23;;;0.20;99.90;;;;;;5060803;28;20025;-92
2023/12/05 01:15:59;;;;;;;32.45;21.15;;;0.20;99.90;;;;;;5036579;28;20030;-92
2023/12/05 01:18:27;;;;;;;33.50;20.58;;;0.20;99.90;;;;;;5039254;28;20018;-92
2023/12/05 01:20:53;;;;;;;;;;;0.30;99.90;;;;;;5040455;28;20032;-94
2023/12/05 01:23:19;;;;;;;31.45;20.75;;;0.30;99.90;;;;;;5030499;28;20489;-90
2023/12/05 01:25:44;;;;;;;31.38;22.30;;;0.20;99.90;;;;;;5044979;28;20021;-92
2023/12/05 01:28:10;;;;;;;33.92;19.40;;;0.20;99.90;;;;;;5034008;28;20569;-92
2023/12/05 01:30:36;;;;;;;35.78;20.80;;;0.20;99.90;;;;;;5043302;28;20026;-92
2023/12/05 01:33:04;;;;;;;36.90;22.52;;;0.20;99.90;;;;;;5043955;28;20112;-92
2023/12/05 01:35:31;;;;;;;42.03;23.38;;;0.20;99.90;;;;;;5042345;28;20060;-92
2023/12/05 01:37:57;;;;;;;36.95;23.55;;;0.20;99.90;;;;;;5041161;28;20051;-92
2023/12/05 01:40:22;;;;;;;38.80;23.65;;;0.30;99.90;;;;;;5037176;28;20069;-92
2023/12/05 01:42:48;;;;;;;39.45;23.73;;;0.30;99.90;;;;;;5036303;28;20026;-91
2023/12/05 01:45:14;;;;;;;39.80;24.20;;;0.40;99.90;;;;;;5041407;28;20523;-93
2023/12/05 01:47:41;;;;;;;35.72;22.85;;;0.30;99.90;;;;;;5039897;28;20076;-92
2023/12/05 01:50:27;;;;;;;41.28;22.92;;;0.40;99.90;;;;;;5044624;28;20025;-92
2023/12/05 01:52:57;;;;;;;37.42;22.10;;;0.40;99.90;;;;;;5032656;28;20522;-91
2023/12/05 01:55:26;;;;;;;37.90;24.08;;;0.40;99.90;;;;;;5039177;28;20025;-92
2023/12/05 01:57:52;;;;;;;34.65;22.75;;;0.40;99.90;;;;;;5044414;28;20129;-92
2023/12/05 02:00:30;;;;;;;40.58;23.60;;;0.30;99.90;;;;;;5036483;28;20021;-92
2023/12/05 02:02:57;;;;;;;30.92;19.55;;;0.40;99.90;;;;;;5043263;28;20072;-93
2023/12/05 02:05:24;;;;;;;33.47;22.52;;;0.30;99.90;;;;;;5039038;28;20037;-92
2023/12/05 02:07:50;;;;;;;38.53;23.23;;;0.30;99.90;;;;;;5033489;28;20030;-94
2023/12/05 02:10:20;;;;;;;38.50;23.60;;;0.20;99.90;;;;;;5041883;28;20025;-91
2023/12/05 02:12:46;;;;;;;37.65;22.92;;;0.30;99.90;;;;;;5031392;28;20026;-92
2023/12/05 02:15:13;;;;;;;33.22;19.92;;;0.40;99.90;;;;;;5044575;28;20025;-91
2023/12/05 02:18:21;;;;;;;38.80;23.98;;;0.30;99.90;;;;;;5059057;28;20033;-92
2023/12/05 02:20:59;;;;;;;30.85;21.38;;;0.30;99.90;;;;;;5036606;28;20048;-92
2023/12/05 02:23:50;;;;;;;36.70;22.33;;;0.30;99.90;;;;;;5019481;28;20041;-91
2023/12/05 02:26:33;;;;;;;32.15;19.77;;;0.30;99.90;;;;;;5029282;28;20026;-91
2023/12/05 02:28:59;;;;;;;32.15;19.08;;;0.30;99.90;;;;;;5039615;28;20025;-92
2023/12/05 02:31:25;;;;;;;29.88;21.17;;;0.30;99.90;;;;;;5036699;28;20056;-94
2023/12/05 02:33:51;;;;;;;31.20;19.70;;;0.50;99.90;;;;;;5041296;28;20025;-91
2023/12/05 02:36:30;;;;;;;31.60;20.77;;;0.70;99.90;;;;;;5045719;28;20030;-92
2023/12/05 02:39:19;;;;;;;29.85;20.00;;;0.90;99.90;;;;;;5036264;28;20073;-91
2023/12/05 02:41:49;;;;;;;28.10;18.65;;;1.00;99.90;;;;;;5036706;28;20030;-94
2023/12/05 02:44:18;;;;;;;32.03;19.95;;;1.20;99.90;;;;;;5036431;28;20033;-92
2023/12/05 02:46:47;;;;;;;33.00;18.75;;;1.30;99.90;;;;;;5036905;28;20037;-92
2023/12/05 02:49:13;;;;;;;34.40;18.88;;;1.50;99.90;;;;;;5032856;28;20028;-92
2023/12/05 02:51:40;;;;;;;32.38;19.60;;;1.60;99.90;;;;;;5037499;28;20053;-92
2023/12/05 02:54:06;;;;;;;28.40;16.88;;;1.70;99.90;;;;;;5046120;28;20032;-93
2023/12/05 02:56:38;;;;;;;25.30;16.23;;;1.80;99.90;;;;;;5059275;28;20414;-91
2023/12/05 02:59:06;;;;;;;27.13;15.00;;;1.90;99.90;;;;;;5058829;28;20049;-92
2023/12/05 03:01:41;;;;;;;;;;;1.90;99.90;;;;;;5041594;28;20033;-92
2023/12/05 03:04:10;;;;;;;24.08;14.70;;;1.90;99.90;;;;;;5042369;28;19911;-92
2023/12/05 03:06:36;;;;;;;28.63;17.67;;;1.90;99.90;;;;;;5039352;28;20021;-92
2023/12/05 03:09:03;;;;;;;26.92;17.90;;;1.80;99.90;;;;;;5043508;28;20100;-91
2023/12/05 03:11:29;;;;;;;25.33;16.02;;;1.60;99.90;;;;;;5042908;28;20040;-91
2023/12/05 03:13:55;;;;;;;25.80;17.17;;;1.60;99.90;;;;;;5041434;28;20191;-92
2023/12/05 03:16:21;;;;;;;23.52;14.73;;;1.50;99.90;;;;;;5035844;28;20026;-92
2023/12/05 03:18:49;;;;;;;24.25;16.55;;;1.50;99.90;;;;;;5041050;28;20032;-93
2023/12/05 03:21:18;;;;;;;19.02;11.82;;;1.50;99.90;;;;;;5042183;28;20029;-91
2023/12/05 03:23:44;;;;;;;18.70;12.88;;;1.60;99.90;;;;;;5043746;28;20017;-92
2023/12/05 03:26:20;;;;;;;16.65;9.75;;;1.80;99.90;;;;;;5044346;28;20036;-92
2023/12/05 03:28:49;;;;;;;21.98;13.05;;;2.10;99.90;;;;;;5040636;28;20018;-92
2023/12/05 03:31:15;;;;;;;16.92;12.60;;;2.20;99.90;;;;;;5024996;28;20026;-92
2023/12/05 03:33:44;;;;;;;17.70;10.68;;;2.20;99.90;;;;;;5032234;28;20018;-91
2023/12/05 03:36:16;;;;;;;17.63;12.27;;;2.20;99.90;;;;;;5039670;28;20080;-92
2023/12/05 03:38:41;;;;;;;12.90;9.10;;;2.20;99.90;;;;;;5044504;28;20045;-92
2023/12/05 03:41:08;;;;;;;10.93;6.97;;;2.20;99.90;;;;;;5041854;28;20028;-92
2023/12/05 03:43:34;;;;;;;7.00;4.30;;;2.70;99.90;;;;;;5019853;28;20018;-93
2023/12/05 03:46:00;;;;;;;8.30;3.45;;;3.10;99.90;;;;;;5030587;28;20057;-92
2023/12/05 03:48:26;;;;;;;2.97;2.47;;;3.50;99.90;;;;;;5035502;28;20029;-91
2023/12/05 03:50:52;;;;;;;3.67;2.15;;;3.80;99.90;;;;;;5043390;28;20105;-92
2023/12/05 03:53:20;;;;;;;2.92;2.35;;;4.00;99.90;;;;;;5042174;28;20026;-92
2023/12/05 03:55:46;;;;;;;2.03;1.30;;;4.20;99.90;;;;;;5044288;28;20033;-93
2023/12/05 03:58:12;;;;;;;3.85;3.42;;;4.40;99.90;;;;;;5034678;28;20029;-92
2023/12/05 04:00:38;;;;;;;3.25;2.33;;;4.50;99.90;;;;;;5036845;28;20052;-91
2023/12/05 04:03:06;;;;;;;2.63;2.42;;;4.70;99.90;;;;;;5039593;28;20041;-93
2023/12/05 04:05:32;;;;;;;;;;;4.80;99.90;;;;;;5034059;28;20484;-92
2023/12/05 04:08:06;;;;;;;3.08;1.38;;;4.90;99.90;;;;;;5040264;28;19996;-91
2023/12/05 04:10:32;;;;;;;2.30;1.55;;;5.00;99.90;;;;;;5043191;28;20071;-92
2023/12/05 04:13:03;;;;;;;1.70;1.40;;;5.10;99.90;;;;;;5054774;28;20702;-91
2023/12/05 04:15:29;;;;;;;2.40;2.15;;;5.20;99.90;;;;;;5038108;28;20021;-91
2023/12/05 04:17:58;;;;;;;2.63;1.30;;;5.30;99.90;;;;;;5042037;28;20072;-92
2023/12/05 04:20:23;;;;;;;1.83;1.67;;;5.30;99.90;;;;;;5043792;28;20022;-91
2023/12/05 04:22:49;;;;;;;1.67;1.58;;;5.30;99.90;;;;;;5022674;28;20057;-92
2023/12/05 04:25:16;;;;;;;2.58;2.05;;;5.30;99.90;;;;;;5039344;28;20024;-91
2023/12/05 04:27:41;;;;;;;5.85;1.33;;;5.30;99.90;;;;;;5051447;28;20093;-93
2023/12/05 04:30:07;;;;;;;2.85;1.70;;;5.40;99.90;;;;;;5040894;28;20029;-92
2023/12/05 04:32:33;;;;;;;1.70;1.60;;;5.40;99.90;;;;;;5028138;28;20072;-92
2023/12/05 04:35:02;;;;;;;2.08;1.88;;;5.40;99.90;;;;;;5031458;28;20034;-92
2023/12/05 04:37:30;;;;;;;1.65;1.27;;;5.50;99.90;;;;;;5034974;28;20044;-92
2023/12/05 04:39:56;;;;;;;2.00;1.90;;;5.60;99.90;;;;;;5041825;28;20081;-91
2023/12/05 04:42:22;;;;;;;3.10;1.33;;;5.60;99.90;;;;;;5037711;28;20048;-92
2023/12/05 04:44:49;;;;;;;2.50;1.67;;;5.70;99.90;;;;;;5030399;28;20594;-92
2023/12/05 04:47:20;;;;;;;3.03;1.95;;;5.70;99.90;;;;;;5037340;28;20048;-91
2023/12/05 04:49:52;;;;;;;1.75;1.23;;;5.70;99.90;;;;;;5045549;28;20025;-90
2023/12/05 04:52:20;;;;;;;2.60;1.35;;;5.80;99.90;;;;;;5043744;28;20029;-92
2023/12/05 04:54:46;;;;;;;2.83;1.88;;;5.80;99.90;;;;;;5043793;28;20025;-90
2023/12/05 04:57:12;;;;;;;1.75;1.50;;;5.80;99.90;;;;;;5035394;28;20037;-89
2023/12/05 04:59:37;;;;;;;2.08;1.63;;;5.80;99.90;;;;;;5032481;28;20018;-91
2023/12/05 05:02:03;;;;;;;2.95;1.70;;;5.80;99.90;;;;;;5024275;28;20026;-90
2023/12/05 05:04:29;;;;;;;2.97;2.28;;;5.90;99.90;;;;;;5047331;28;20021;-90
2023/12/05 05:06:55;;;;;;;3.42;1.10;;;5.90;99.90;;;;;;5041339;28;20042;-91
2023/12/05 05:09:21;;;;;;;2.28;2.05;;;5.90;99.90;;;;;;5037028;28;20044;-91
2023/12/05 05:11:46;;;;;;;2.28;1.10;;;5.90;99.90;;;;;;5031889;28;20447;-92
2023/12/05 05:14:12;;;;;;;2.95;1.88;;;5.90;99.90;;;;;;5040344;28;20025;-91
2023/12/05 05:16:38;;;;;;;1.25;1.00;;;6.10;99.90;;;;;;5026560;28;20038;-90
2023/12/05 05:19:03;;;;;;;2.05;1.50;;;6.10;99.90;;;;;;5031172;28;20084;-91
2023/12/05 05:21:29;;;;;;;2.70;2.50;;;6.30;99.90;;;;;;5027848;28;20033;-89
2023/12/05 05:24:02;;;;;;;3.05;1.83;;;6.40;99.90;;;;;;5027483;28;20069;-90
2023/12/05 05:26:28;;;;;;;2.22;2.13;;;6.40;99.90;;;;;;5036391;28;20048;-90
2023/12/05 05:28:53;;;;;;;2.08;1.98;;;6.40;99.90;;;;;;5031839;28;20064;-93
2023/12/05 05:31:22;;;;;;;1.48;1.05;;;6.40;99.90;;;;;;5024811;28;20495;-90
2023/12/05 05:33:48;;;;;;;2.05;0.93;;;6.40;99.90;;;;;;5052004;28;20599;-90
2023/12/05 05:36:14;;;;;;;2.78;1.95;;;6.50;99.90;;;;;;5030920;28;20049;-90
2023/12/05 05:38:40;;;;;;;2.00;1.65;;;6.50;99.90;;;;;;5038473;28;20025;-89
2023/12/05 05:41:06;;;;;;;3.35;2.88;;;6.50;99.90;;;;;;5034245;28;20069;-90
2023/12/05 05:43:35;;;;;;;2.38;0.77;;;6.60;99.90;;;;;;5033331;28;20145;-90
2023/12/05 05:46:01;;;;;;;3.30;1.80;;;6.50;99.90;;;;;;5024009;28;20025;-92
2023/12/05 05:48:35;;;;;;;2.40;0.95;;;6.60;99.90;;;;;;5035885;28;20495;-92
2023/12/05 05:51:01;;;;;;;;;;;6.60;99.90;;;;;;5045002;28;20033;-92
2023/12/05 05:53:26;;;;;;;1.67;1.50;;;6.50;99.90;;;;;;5043583;28;20363;-93
2023/12/05 05:55:54;;;;;;;1.88;1.77;;;6.50;99.90;;;;;;5035802;28;20038;-92
2023/12/05 05:58:27;;;;;;;1.05;0.85;;;6.50;99.90;;;;;;5033731;28;20029;-91
2023/12/05 06:00:53;;;;;;;1.27;1.17;;;6.40;99.90;;;;;;5033426;28;20026;-92
2023/12/05 06:03:21;;;;;;;1.70;1.60;;;6.40;99.90;;;;;;5035225;28;20036;-92
2023/12/05 06:05:47;;;;;;;1.80;1.05;;;6.40;99.90;;;;;;5035971;28;20544;-90
2023/12/05 06:08:12;;;;;;;2.15;1.58;;;6.50;99.90;;;;;;5043948;28;20060;-91
2023/12/05 06:10:41;;;;;;;1.73;1.23;;;6.50;99.90;;;;;;5028172;28;20034;-90
2023/12/05 06:13:07;;;;;;;2.65;2.45;;;6.60;99.90;;;;;;5038104;28;20045;-91
2023/12/05 06:15:33;;;;;;;1.77;1.67;;;6.50;99.90;;;;;;5043654;28;20028;-92
2023/12/05 06:18:01;;;;;;;1.83;0.68;;;6.60;99.90;;;;;;5030172;28;20707;-91
2023/12/05 06:20:27;;;;;;;4.18;0.90;;;6.70;99.90;;;;;;5032467;28;20038;-92
2023/12/05 06:22:53;;;;;;;1.17;1.05;;;6.70;99.90;;;;;;5038474;28;20044;-91
2023/12/05 06:25:18;;;;;;;2.58;0.80;;;6.70;99.90;;;;;;5036135;28;20033;-92
2023/12/05 06:27:50;;;;;;;1.88;1.73;;;6.70;99.90;;;;;;5031220;28;20037;-91
2023/12/05 06:30:19;;;;;;;2.85;2.08;;;6.70;99.90;;;;;;5023946;28;20034;-93
2023/12/05 06:32:44;;;;;;;1.85;1.30;;;6.70;99.90;;;;;;5054438;28;20032;-93
2023/12/05 06:35:10;;;;;;;3.22;2.28;;;6.70;99.90;;;;;;5042293;28;20108;-93
2023/12/05 06:37:36;;;;;;;2.78;1.52;;;6.70;99.90;;;;;;5033563;28;20037;-90
2023/12/05 06:40:04;;;;;;;2.83;1.17;;;6.60;99.90;;;;;;5024509;28;20046;-91
2023/12/05 06:42:30;;;;;;;1.70;1.50;;;6.50;99.90;;;;;;5036319;28;20037;-93
2023/12/05 06:44:56;;;;;;;3.97;1.35;;;6.60;99.90;;;;;;5044692;28;20022;-91
2023/12/05 06:47:24;;;;;;;2.42;1.15;;;6.70;99.90;;;;;;5042367;28;20033;-91
2023/12/05 06:49:50;;;;;;;2.47;1.75;;;6.70;99.90;;;;;;5041919;28;20044;-90
2023/12/05 06:52:16;;;;;;;3.47;1.52;;;6.60;99.90;;;;;;5043411;28;20021;-91
2023/12/05 06:54:42;;;;;;;2.20;2.05;;;6.70;99.90;;;;;;5041171;28;20033;-91
2023/12/05 06:57:08;;;;;;;2.00;1.63;;;6.60;99.90;;;;;;5035142;28;20022;-92
2023/12/05 06:59:41;;;;;;;3.63;2.08;;;6.60;99.90;;;;;;5032366;28;20027;-92
2023/12/05 07:02:10;;;;;;;3.65;1.50;;;6.50;99.90;;;;;;5032884;28;20055;-91
2023/12/05 07:04:35;;;;;;;2.90;1.05;;;6.50;99.90;;;;;;5027453;28;20026;-91
2023/12/05 07:07:01;;;;;;;2.58;1.63;;;6.50;99.90;;;;;;5031701;28;20030;-89
2023/12/05 07:09:27;;;;;;;1.60;1.10;;;6.50;99.90;;;;;;5032483;28;20022;-91
2023/12/05 07:11:53;;;;;;;2.55;1.35;;;6.60;99.90;;;;;;5023892;28;20054;-91
2023/12/05 07:14:21;;;;;;;3.72;1.58;;;6.50;99.90;;;;;;5024456;28;20024;-90
2023/12/05 07:16:46;;;;;;;;;;;6.50;99.90;;;;;;5022772;28;20034;-90
2023/12/05 07:19:18;;;;;;;2.28;1.25;;;6.60;99.90;;;;;;5034178;28;21665;-90
2023/12/05 07:21:49;;;;;;;3.03;1.75;;;6.60;99.90;;;;;;5010028;28;20070;-89
2023/12/05 07:24:18;;;;;;;2.70;1.10;;;6.50;99.90;;;;;;5006073;28;20404;-90
2023/12/05 07:26:43;;;;;;;1.73;1.63;;;6.60;99.90;;;;;;5007170;28;20578;-89
2023/12/05 07:29:09;;;;;;;3.72;1.65;;;6.50;99.90;;;;;;5011775;28;20022;-91
2023/12/05 07:31:41;;;;;;;3.72;0.98;;;6.50;99.90;;;;;;5010283;28;20110;-90
2023/12/05 07:34:07;;;;;;;2.75;1.23;;;6.60;99.90;;;;;;5005042;28;20711;-91
2023/12/05 07:36:42;;;;;;;2.45;1.25;;;6.60;99.90;;;;;;5011455;28;20036;-90
2023/12/05 07:39:12;;;;;;;3.80;1.95;;;6.50;99.90;;;;;;5007043;28;20420;-89
2023/12/05 07:41:39;;;;;;;2.72;1.30;;;6.60;99.90;;;;;;5016560;28;20025;-90
2023/12/05 07:44:06;;;;;;;3.00;2.40;;;6.60;99.90;;;;;;5002873;28;20025;-90
2023/12/05 07:46:42;;;;;;;3.63;1.80;;;6.60;99.10;;;;;;5006802;28;20034;-89
2023/12/05 07:49:08;;;;;;;5.63;2.38;;;6.70;99.40;;;;;;5007705;28;20021;-90
2023/12/05 07:51:39;;;;;;;2.65;1.33;;;6.80;99.00;;;;;;5005383;28;20092;-91
2023/12/05 07:54:13;;;;;;;3.03;1.30;;;6.80;99.20;;;;;;5003973;28;20041;-90
2023/12/05 07:56:38;;;;;;;2.60;1.00;;;6.80;98.70;;;;;;5011408;28;20025;-90
2023/12/05 07:59:04;;;;;;;2.08;1.58;;;6.70;98.70;;;;;;5004532;28;20014;-91
2023/12/05 08:01:30;;;;;;;2.95;1.45;;;6.80;98.10;;;;;;5007998;28;21005;-89
2023/12/05 08:04:01;;;;;;;3.80;2.35;;;6.80;98.10;;;;;;5004300;28;20095;-90
2023/12/05 08:06:33;;;;;;;2.47;2.30;;;6.80;98.70;;;;;;5008909;28;20109;-90
2023/12/05 08:09:07;;;;;;;1.50;1.27;;;6.70;99.20;;;;;;5003427;28;20038;-90
2023/12/05 08:11:40;;;;;;;2.15;1.92;;;6.70;98.60;;;;;;5005094;28;20030;-89
2023/12/05 08:14:08;;;;;;;2.70;1.45;;;6.70;98.90;;;;;;5012621;28;20133;-90
2023/12/05 08:16:39;;;;;;;2.10;0.85;;;6.80;98.20;;;;;;5013963;28;20029;-90
2023/12/05 08:19:08;;;;;;;3.15;2.15;;;6.80;98.20;;;;;;5008599;28;20018;-89
2023/12/05 08:21:34;;;;;;;4.05;1.52;;;6.80;98.80;;;;;;5012563;28;20026;-88
2023/12/05 08:24:00;;;;;;;8.45;4.35;;;6.80;98.70;;;;;;5012181;28;20056;-90
2023/12/05 08:26:28;;;;;;;2.63;2.38;;;6.80;99.20;;;;;;5007735;28;20030;-90
2023/12/05 08:28:59;;;;;;;;;;;6.80;98.70;;;;;;5008168;28;20052;-91
2023/12/05 08:31:26;;;;;;;2.40;2.25;;;6.90;97.60;;;;;;5026503;28;19995;-89
2023/12/05 08:33:52;;;;;;;3.08;1.15;;;6.80;97.90;;;;;;5010540;28;20302;-89
2023/12/05 08:36:29;;;;;;;3.55;2.50;;;6.80;98.50;;;;;;5010013;28;20519;-90
2023/12/05 08:39:03;;;;;;;1.85;1.17;;;6.90;98.70;;;;;;5011882;28;20104;-89
2023/12/05 08:41:39;;;;;;;3.03;1.35;;;6.80;98.10;;;;;;5027492;28;20388;-90
2023/12/05 08:44:05;;;;;;;1.38;1.27;;;6.90;96.70;;;;;;5024671;28;20164;-89
2023/12/05 08:46:34;;;;;;;2.63;1.40;;;6.90;97.30;;;;;;5009127;28;20049;-89
2023/12/05 08:49:06;;;;;;;2.05;1.75;;;6.90;97.40;;;;;;5008858;28;20592;-90
2023/12/05 08:51:38;;;;;;;4.03;1.13;;;6.90;97.70;;;;;;5009487;28;20065;-91
2023/12/05 08:54:06;;;;;;;4.25;1.35;;;6.90;98.00;;;;;;5003367;28;20146;-90
2023/12/05 08:56:32;;;;;;;3.10;1.77;;;6.90;97.90;;;;;;5008685;28;20553;-89
2023/12/05 08:59:04;;;;;;;1.70;1.60;;;7.00;96.90;;;;;;5017563;28;20647;-89
2023/12/05 09:01:37;;;;;;;1.58;1.02;;;7.10;95.90;;;;;;5007890;28;20495;-90
2023/12/05 09:04:08;;;;;;;1.52;1.10;;;7.10;96.20;;;;;;5010664;28;20076;-89
2023/12/05 09:06:49;;;;;;;2.60;1.17;;;7.10;96.00;;;;;;5011766;28;20107;-90
2023/12/05 09:09:19;;;;;;;2.50;1.17;;;7.10;95.80;;;;;;5012523;28;20026;-89
2023/12/05 09:12:17;;;;;;;4.43;1.80;;;7.20;96.00;;;;;;5022109;28;20120;-90
2023/12/05 09:14:51;;;;;;;4.80;1.45;;;7.20;95.20;;;;;;5003664;28;20108;-90
2023/12/05 09:17:22;;;;;;;1.65;1.10;;;7.30;94.40;;;;;;5021237;28;20796;-90
2023/12/05 09:19:50;;;;;;;2.22;1.88;;;7.30;94.70;;;;;;5010952;28;20033;-90
2023/12/05 09:22:24;;;;;;;4.63;1.60;;;7.30;94.40;;;;;;5012442;28;20025;-89
2023/12/05 09:24:55;;;;;;;2.90;1.23;;;7.30;94.40;;;;;;5021943;28;20060;-90
2023/12/05 09:27:21;;;;;;;2.88;1.55;;;7.30;94.70;;;;;;5024783;28;20025;-90
2023/12/05 09:29:47;;;;;;;1.85;1.05;;;7.30;93.60;;;;;;5013543;28;20030;-89
2023/12/05 09:32:17;;;;;;;1.30;0.95;;;7.30;94.20;;;;;;5012915;28;20065;-91
2023/12/05 09:34:54;;;;;;;2.50;1.55;;;7.30;92.60;;;;;;5013727;28;20045;-89
2023/12/05 09:37:32;;;;;;;1.48;0.85;;;7.30;93.90;;;;;;5003194;28;20065;-89
2023/12/05 09:40:01;;;;;;;1.08;0.85;;;7.30;94.10;;;;;;5012013;28;20022;-90
2023/12/05 09:42:31;;;;;;;1.70;1.17;;;7.30;94.00;;;;;;5012277;28;20022;-91
2023/12/05 09:48:20;;;;;;;2.63;1.27;;;7.30;94.10;;;;;;5013118;28;20045;-90
2023/12/05 09:50:51;;;;;;;3.63;1.42;;;7.30;94.10;;;;;;5020188;28;20030;-91
2023/12/05 09:53:29;;;;;;;1.73;1.63;;;7.20;94.70;;;;;;5006218;28;20038;-89
2023/12/05 09:55:55;;;;;;;2.88;0.93;;;7.20;94.70;;;;;;5013948;28;20018;-90
2023/12/05 09:58:24;;;;;;;2.13;1.80;;;7.20;93.30;;;;;;5014054;28;20026;-90
2023/12/05 10:00:54;;;;;;;1.05;0.77;;;7.30;94.00;;;;;;5008788;28;20030;-90
2023/12/05 10:03:22;;;;;;;1.27;1.17;;;7.30;93.50;;;;;;5029777;28;20091;-90
2023/12/05 10:06:13;;;;;;;1.92;1.08;;;7.30;93.60;;;;;;5016253;28;20025;-90
2023/12/05 10:08:45;;;;;;;2.00;0.85;;;7.30;92.10;;;;;;5010762;28;20053;-90
2023/12/05 10:11:23;;;;;;;4.78;1.27;;;7.30;92.00;;;;;;5026252;28;20056;-90
2023/12/05 10:14:02;;;;;;;4.90;1.20;;;7.40;91.50;;;;;;5007010;28;20022;-89
2023/12/05 10:16:30;;;;;;;2.03;1.42;;;7.30;90.30;;;;;;5010448;28;20059;-90
2023/12/05 10:19:10;;;;;;;2.08;1.20;;;7.40;91.40;;;;;;5007688;28;20025;-90
2023/12/05 10:21:37;;;;;;;1.42;1.00;;;7.40;91.70;;;;;;5006321;28;20663;-90
2023/12/05 10:24:03;;;;;;;3.50;1.75;;;7.30;92.20;;;;;;5008863;28;20041;-90
2023/12/05 10:26:29;;;;;;;1.38;1.30;;;7.40;91.30;;;;;;5012741;28;20407;-91
2023/12/05 10:28:59;;;;;;;1.75;0.80;;;7.40;91.60;;;;;;5010512;28;20094;-91
2023/12/05 10:31:25;;;;;;;3.10;0.90;;;7.30;90.70;;;;;;5011184;28;20116;-89
2023/12/05 10:34:09;;;;;;;1.35;1.10;;;7.40;91.40;;;;;;5013000;28;20135;-91
2023/12/05 10:37:06;;;;;;;1.25;1.08;;;7.30;90.90;;;;;;5019823;28;20177;-90
2023/12/05 10:39:56;;;;;;;2.38;1.10;;;7.40;91.70;;;;;;5007610;28;20033;-91
2023/12/05 10:42:52;;;;;;;1.27;0.98;;;7.30;91.30;;;;;;5012912;28;20043;-89
2023/12/05 10:45:19;;;;;;;3.08;1.60;;;7.40;90.90;;;;;;5011604;28;20018;-91
2023/12/05 10:47:49;;;;;;;1.80;1.20;;;7.40;91.20;;;;;;5025454;28;20034;-92
2023/12/05 10:50:18;;;;;;;3.30;0.90;;;7.40;92.20;;;;;;5010105;28;20058;-90
2023/12/05 10:52:53;;;;;;;5.03;2.55;;;7.30;92.90;;;;;;5030931;28;20044;-88
2023/12/05 10:55:31;;;;;;;1.13;1.02;;;7.40;91.40;;;;;;5011810;28;20032;-92
2023/12/05 10:58:00;;;;;;;1.90;1.40;;;7.30;92.70;;;;;;5015051;28;20041;-91
2023/12/05 11:00:40;;;;;;;2.30;1.13;;;7.30;92.30;;;;;;5008146;28;20025;-91
2023/12/05 11:03:06;;;;;;;2.78;2.58;;;7.40;92.20;;;;;;5027554;28;20393;-90
2023/12/05 11:06:06;;;;;;;;;;;;;;;;;;;;;
2023/12/05 11:08:27;;;;;;;1.50;0.80;;;7.60;91.30;;;;;;5009932;28;20026;-90
2023/12/05 11:10:58;;;;;;;4.10;1.25;;;7.60;90.40;;;;;;5023847;28;20033;-91
2023/12/05 11:13:27;;;;;;;2.22;0.88;;;7.70;91.00;;;;;;5022884;28;21647;-90
2023/12/05 11:15:56;;;;;;;3.05;1.00;;;7.70;92.20;;;;;;5029426;28;20033;-91
2023/12/05 11:18:45;;;;;;;2.15;1.48;;;7.70;90.30;;;;;;5024859;28;20038;-92
2023/12/05 11:21:32;;;;;;;2.50;0.98;;;7.80;90.20;;;;;;5025228;28;20137;-91
2023/12/05 11:24:32;;;;;;;1.25;1.25;;;7.80;89.70;;;;;;5010288;28;20816;-92
2023/12/05 11:27:00;;;;;;;2.65;1.58;;;7.80;91.70;;;;;;5008755;28;20498;-93
2023/12/05 11:30:10;;;;;;;1.58;0.90;;;7.80;91.90;;;;;;5012065;28;20056;-91
2023/12/05 11:33:20;;;;;;;1.38;1.17;;;7.80;91.10;;;;;;5012642;28;20034;-91
2023/12/05 11:36:28;;;;;;;2.78;1.20;;;7.80;91.60;;;;;;5034961;28;20021;-92
2023/12/05 11:39:00;;;;;;;2.65;1.58;;;7.70;91.80;;;;;;5028535;28;20049;-91
2023/12/05 11:41:29;;;;;;;2.15;2.03;;;7.70;92.50;;;;;;5009525;28;20026;-92
2023/12/05 11:44:14;;;;;;;2.88;0.77;;;7.70;91.50;;;;;;5020969;28;20060;-90
2023/12/05 11:46:45;;;;;;;1.80;1.02;;;7.70;91.40;;;;;;5012896;28;20026;-91
2023/12/05 11:49:27;;;;;;;1.35;1.25;;;7.70;91.40;;;;;;5012396;28;20105;-91
2023/12/05 11:51:53;;;;;;;1.95;1.60;;;7.70;89.70;;;;;;5023285;28;20058;-91
2023/12/05 11:54:23;;;;;;;1.20;1.00;;;7.80;90.00;;;;;;5036298;28;20033;-92
2023/12/05 11:56:49;;;;;;;1.52;0.77;;;7.70;90.20;;;;;;5052019;28;20041;-91
2023/12/05 11:59:24;;;;;;;1.65;1.35;;;7.80;89.60;;;;;;5046294;28;20053;-91
2023/12/05 12:02:02;;;;;;;2.08;1.98;;;7.70;90.10;;;;;;5038709;28;20064;-94
2023/12/05 12:04:31;;;;;;;2.97;1.10;;;7.70;89.00;;;;;;5026065;28;20036;-94
2023/12/05 12:06:58;;;;;;;2.13;1.08;;;7.80;89.80;;;;;;5045017;28;20400;-93
2023/12/05 12:09:27;;;;;;;1.95;1.38;;;7.80;88.30;;;;;;5025035;28;20029;-93
2023/12/05 12:11:57;;;;;;;2.05;1.38;;;7.80;88.80;;;;;;5028999;28;20030;-92
2023/12/05 12:14:24;;;;;;;2.15;1.13;;;7.80;88.10;;;;;;5026496;28;20048;-94
2023/12/05 12:16:50;;;;;;;1.35;1.17;;;7.70;88.10;;;;;;5054163;22;20044;-93
2023/12/05 12:19:16;;;;;;;2.40;1.33;;;7.70;88.40;;;;;;5036810;28;20052;-90
2023/12/05 12:21:45;;;;;;;4.35;1.88;;;7.70;88.80;;;;;;5039041;28;20105;-90
2023/12/05 12:24:21;;;;;;;1.45;1.13;;;7.70;88.80;;;;;;5050472;28;20081;-89
2023/12/05 12:26:55;;;;;;;1.58;1.20;;;7.60;89.50;;;;;;5035474;28;20396;-90
2023/12/05 12:29:21;;;;;;;2.28;0.80;;;7.60;92.50;;;;;;5027991;28;20028;-89
2023/12/05 12:31:48;;;;;;;3.00;1.40;;;7.50;93.70;;;;;;5047964;28;20558;-90
2023/12/05 12:34:22;;;;;;;5.30;1.58;;;7.50;94.00;;;;;;5044052;28;20391;-90
2023/12/05 12:36:48;;;;;;;3.25;1.45;;;7.40;93.80;;;;;;5043048;28;20041;-90
2023/12/05 12:39:16;;;;;;;2.47;1.52;;;7.40;95.80;;;;;;5045461;28;20021;-89
2023/12/05 12:41:42;;;;;;;2.17;1.35;;;7.40;96.70;;;;;;5039946;28;20022;-90
2023/12/05 12:44:09;;;;;;;1.90;1.42;;;7.40;96.00;;;;;;5038230;28;20052;-90
2023/12/05 12:46:35;;;;;;;2.70;1.05;;;7.40;96.30;;;;;;5037552;28;20036;-91
2023/12/05 12:49:02;;;;;;;4.53;1.50;;;7.40;96.70;;;;;;5039591;28;20037;-90
2023/12/05 12:51:31;;;;;;;2.15;1.48;;;7.40;97.30;;;;;;5051086;28;20113;-91
2023/12/05 12:53:57;;;;;;;7.32;2.42;;;7.40;98.30;;;;;;5027320;28;20021;-95
2023/12/05 12:56:23;;;;;;;2.67;1.58;;;7.30;97.80;;;;;;5049167;28;20084;-92
2023/12/05 12:58:49;;;;;;;2.92;1.85;;;7.30;98.20;;;;;;5056192;28;20476;-89
2023/12/05 13:01:15;;;;;;;3.80;1.42;;;7.20;96.40;;;;;;5040987;28;20048;-90
2023/12/05 13:03:44;;;;;;;3.28;1.50;;;7.20;95.20;;;;;;5042049;28;20021;-89
2023/12/05 13:06:11;;;;;;;4.80;2.45;;;7.30;96.00;;;;;;5043404;28;20035;-90
2023/12/05 13:08:39;;;;;;;5.00;1.92;;;7.30;95.60;;;;;;5045182;28;20083;-90